Time;durP1;ratioP1;P1;durP2;ratioP2;P2;SDS_P1;SDS_P2;PMS_P1;PMS_P2;Temp;Humidity;BMP_temperature;BMP_pressure;BME280_temperature;BME280_humidity;BME280_pressure;Samples;Min_cycle;Max_cycle;Signal;HPM_P1;HPM_P2
2023/01/29 00:01:59;;;;;;;;;46.00;40.00;;;;;4.74;100.00;102376.84;4985885;28;44739;-84
2023/01/29 00:04:24;;;;;;;;;44.00;40.00;;;;;4.71;100.00;102376.66;4968293;28;45365;-83
2023/01/29 00:06:50;;;;;;;;;38.67;36.33;;;;;4.65;100.00;102368.38;4985517;28;45416;-83
2023/01/29 00:09:15;;;;;;;;;46.00;35.67;;;;;4.67;100.00;102375.56;4968535;28;46898;-84
2023/01/29 00:11:41;;;;;;;;;42.00;35.00;;;;;4.63;100.00;102370.91;4969382;28;45522;-85
2023/01/29 00:14:06;;;;;;;;;38.67;36.67;;;;;4.66;100.00;102368.44;4967698;28;45467;-84
2023/01/29 00:16:32;;;;;;;;;46.33;39.33;;;;;4.56;100.00;102356.38;4989927;28;45340;-84
2023/01/29 00:18:57;;;;;;;;;50.67;40.33;;;;;4.66;100.00;102368.44;4989186;28;45427;-84
2023/01/29 00:21:23;;;;;;;;;44.00;40.00;;;;;4.60;100.00;102358.44;4971629;28;45696;-83
2023/01/29 00:23:49;;;;;;;;;42.00;33.00;;;;;4.61;100.00;102360.25;4972355;28;45354;-83
2023/01/29 00:26:16;;;;;;;;;46.00;39.00;;;;;4.66;100.00;102362.25;4973121;28;45389;-84
2023/01/29 00:28:41;;;;;;;;;45.00;40.00;;;;;4.63;100.00;102359.44;4990125;28;46264;-84
2023/01/29 00:31:13;;;;;;;;;42.67;39.00;;;;;4.75;100.00;102357.59;4972154;28;44733;-84
2023/01/29 00:33:38;;;;;;;;;48.00;42.00;;;;;4.60;100.00;102358.44;4989835;28;45623;-83
2023/01/29 00:36:06;;;;;;;;;49.33;43.00;;;;;4.63;100.00;102356.81;4987269;28;45567;-84
2023/01/29 00:38:33;;;;;;;;;39.67;35.33;;;;;4.60;100.00;102350.53;4988015;28;45348;-83
2023/01/29 00:46:34;;;;;;;;;58.00;46.00;;;;;4.62;100.00;102345.34;5008998;28;45328;-83
2023/01/29 00:48:59;;;;;;;;;45.00;39.33;;;;;4.68;100.00;102352.72;4989785;28;47051;-83
2023/01/29 00:51:25;;;;;;;;;54.33;45.67;;;;;4.61;100.00;102349.72;4989813;28;45297;-85
2023/01/29 00:53:50;;;;;;;;;51.00;44.00;;;;;4.57;100.00;102350.31;4989823;28;45411;-85
2023/01/29 00:56:15;;;;;;;;;58.50;45.00;;;;;4.57;100.00;102349.41;5008979;28;45383;-84
2023/01/29 00:58:41;;;;;;;;;62.25;48.00;;;;;4.56;100.00;102351.13;4990521;28;46865;-84
2023/01/29 01:01:06;;;;;;;;;59.50;49.50;;;;;4.57;100.00;102363.50;4990785;28;45698;-83
2023/01/29 01:03:34;;;;;;;;;61.25;50.50;;;;;4.50;100.00;102355.09;4990646;28;45805;-83
2023/01/29 01:06:37;;;;;;;;;57.25;50.25;;;;;4.68;100.00;102350.09;5006181;28;45438;-84
2023/01/29 01:11:47;;;;;;;;;64.25;52.00;;;;;4.50;100.00;102356.00;4987161;28;45424;-84
2023/01/29 01:14:12;;;;;;;;;67.25;54.25;;;;;4.40;100.00;102336.06;4969483;28;45339;-83
2023/01/29 01:16:37;;;;;;;;;61.75;52.75;;;;;4.44;100.00;102349.44;4986732;28;45531;-83
2023/01/29 01:19:03;;;;;;;;;64.00;51.50;;;;;4.44;100.00;102347.69;4970581;28;46941;-83
2023/01/29 01:21:29;;;;;;;;;63.50;48.25;;;;;4.39;100.00;102347.41;4969022;28;45620;-84
2023/01/29 01:23:54;;;;;;;;;66.75;55.50;;;;;4.38;100.00;102345.59;4987226;28;45453;-84
2023/01/29 01:26:20;;;;;;;;;61.25;48.50;;;;;4.36;100.00;102348.94;4968293;28;45511;-84
2023/01/29 01:28:45;;;;;;;;;71.50;56.75;;;;;4.29;100.00;102347.63;4968595;28;46860;-83
2023/01/29 01:31:12;;;;;;;;;67.75;55.25;;;;;4.35;100.00;102347.13;4986000;28;45428;-83
2023/01/29 01:33:38;;;;;;;;;65.75;52.75;;;;;4.32;100.00;102352.16;4985176;28;45396;-82
2023/01/29 01:36:08;;;;;;;;;64.75;54.00;;;;;4.30;100.00;102345.91;4986401;28;45361;-84
2023/01/29 01:38:43;;;;;;;;;70.75;56.75;;;;;4.29;100.00;102352.91;4968369;28;48181;-84
2023/01/29 01:41:20;;;;;;;;;67.25;52.00;;;;;4.35;100.00;102349.75;4986278;28;45530;-84
2023/01/29 01:43:58;;;;;;;;;67.00;55.25;;;;;4.34;100.00;102348.84;4986125;28;45241;-84
2023/01/29 01:46:24;;;;;;;;;67.00;55.25;;;;;4.27;100.00;102358.88;4967491;28;45959;-83
2023/01/29 01:49:16;;;;;;;;;68.75;56.00;;;;;4.30;100.00;102353.78;4970596;28;47636;-83
2023/01/29 01:51:47;;;;;;;;;66.25;52.75;;;;;4.23;100.00;102354.22;4986805;28;45420;-84
2023/01/29 01:54:21;;;;;;;;;67.00;54.75;;;;;4.19;100.00;102348.75;4986810;28;45407;-84
2023/01/29 01:57:08;;;;;;;;;68.00;55.50;;;;;4.18;100.00;102341.66;4970456;28;45393;-84
2023/01/29 01:59:36;;;;;;;;;63.75;51.50;;;;;4.17;100.00;102349.47;4969954;28;47193;-84
2023/01/29 02:10:17;;;;;;;;;60.25;52.25;;;;;4.13;100.00;102377.31;4997528;28;45410;-84
2023/01/29 02:12:44;;;;;;;;;63.50;50.75;;;;;4.03;100.00;102361.69;4989711;28;44787;-84
2023/01/29 02:15:11;;;;;;;;;61.50;47.25;;;;;4.08;100.00;102370.84;5005625;28;45347;-84
2023/01/29 02:17:37;;;;;;;;;65.50;54.00;;;;;3.97;100.00;102375.34;4988538;28;45783;-84
2023/01/29 02:20:14;;;;;;;;;60.50;49.75;;;;;4.07;100.00;102374.25;4987345;28;48610;-84
2023/01/29 02:23:13;;;;;;;;;68.75;52.50;;;;;4.11;100.00;102380.66;5005724;28;45399;-84
2023/01/29 02:26:11;;;;;;;;;61.75;52.00;;;;;4.06;100.00;102372.44;5005027;28;45579;-84
2023/01/29 02:28:55;;;;;;;;;71.25;56.25;;;;;4.03;100.00;102377.50;4987361;28;45484;-84
2023/01/29 02:31:27;;;;;;;;;62.75;50.25;;;;;3.90;100.00;102372.22;5004810;28;45766;-83
2023/01/29 02:34:03;;;;;;;;;68.50;54.00;;;;;3.91;100.00;102356.53;4988458;28;45770;-83
2023/01/29 02:36:36;;;;;;;;;58.25;48.75;;;;;3.89;100.00;102367.78;5005386;28;45573;-84
2023/01/29 02:39:08;;;;;;;;;64.75;53.50;;;;;3.87;100.00;102374.66;4990697;28;45400;-83
2023/01/29 02:41:59;;;;;;;;;62.75;48.25;;;;;3.98;100.00;102373.66;4985508;28;45337;-83
2023/01/29 02:45:01;;;;;;;;;61.50;46.75;;;;;3.89;100.00;102354.59;4967312;28;45413;-82
2023/01/29 02:47:38;;;;;;;;;71.75;57.50;;;;;3.89;100.00;102351.97;4976328;28;45507;-83
2023/01/29 02:50:36;;;;;;;;;64.50;53.25;;;;;3.87;100.00;102353.59;4968417;28;45555;-84
2023/01/29 02:53:22;;;;;;;;;76.50;60.75;;;;;3.86;100.00;102357.03;4985077;28;46726;-83
2023/01/29 02:55:55;;;;;;;;;72.50;59.25;;;;;3.77;100.00;102350.31;4969061;28;45390;-83
2023/01/29 02:58:24;;;;;;;;;74.50;61.25;;;;;3.72;100.00;102356.13;4987322;28;45503;-83
2023/01/29 03:00:52;;;;;;;;;65.75;49.00;;;;;3.69;100.00;102343.63;4986505;28;45447;-84
2023/01/29 03:03:55;;;;;;;;;63.50;49.75;;;;;3.78;100.00;102331.13;4968252;28;47072;-84
2023/01/29 03:06:32;;;;;;;;;62.75;50.50;;;;;3.77;100.00;102329.28;4872389;29;46094;-85
2023/01/29 03:09:01;;;;;;;;;64.50;51.50;;;;;3.69;100.00;102322.59;4872644;29;44791;-85
2023/01/29 03:11:34;;;;;;;;;49.75;42.25;;;;;3.71;100.00;102326.25;4872846;29;45447;-85
2023/01/29 03:15:10;;;;;;;;;56.00;49.00;;;;;3.76;100.00;102330.09;4890012;29;47305;-83
2023/01/29 03:17:19;;;;;;;;;61.75;46.50;;;;;3.65;100.00;102335.44;4888036;29;45318;-83
2023/01/29 03:19:47;;;;;;;;;60.00;48.50;;;;;3.67;100.00;102340.00;4889795;29;45359;-84
2023/01/29 03:22:15;;;;;;;;;49.25;43.00;;;;;3.58;100.00;102332.41;4889233;29;45424;-84
2023/01/29 03:33:09;;;;;;;;;71.00;56.75;;;;;3.63;100.00;102337.06;4886498;29;45491;-84
2023/01/29 03:35:42;;;;;;;;;62.50;52.75;;;;;3.57;100.00;102321.75;4886120;29;48513;-84
2023/01/29 03:38:10;;;;;;;;;66.00;49.75;;;;;3.54;100.00;102327.75;4885748;29;45447;-85
2023/01/29 03:41:03;;;;;;;;;66.25;53.00;;;;;3.58;100.00;102334.13;4947752;28;44826;-85
2023/01/29 03:43:34;;;;;;;;;64.25;51.50;;;;;3.50;100.00;102330.97;4968088;28;45591;-83
2023/01/29 03:46:21;;;;;;;;;62.50;48.50;;;;;3.55;100.00;102344.44;4968398;28;47603;-83
2023/01/29 03:49:14;;;;;;;;;59.25;48.75;;;;;3.49;100.00;102334.38;4967801;28;45829;-83
2023/01/29 03:52:36;;;;;;;;;64.75;54.25;;;;;3.51;100.00;102338.03;4976956;28;45150;-83
2023/01/29 03:55:13;;;;;;;;;62.25;50.25;;;;;3.43;100.00;102320.81;4969592;28;45512;-83
2023/01/29 03:57:41;;;;;;;;;53.50;47.25;;;;;3.39;100.00;102317.09;4969076;28;47842;-82
2023/01/29 04:00:20;;;;;;;;;63.50;48.50;;;;;3.46;100.00;102328.94;4969954;28;45405;-83
2023/01/29 04:03:00;;;;;;;;;48.50;43.75;;;;;3.47;100.00;102321.94;4986691;28;45309;-82
2023/01/29 04:05:32;;;;;;;;;61.50;48.50;;;;;3.44;100.00;102319.13;4985027;28;45487;-84
2023/01/29 04:08:05;;;;;;;;;60.50;49.00;;;;;3.39;100.00;102327.63;4967355;28;47335;-84
2023/01/29 04:10:34;;;;;;;;;57.50;45.00;;;;;3.32;100.00;102325.34;4966327;28;45665;-84
2023/01/29 04:13:05;;;;;;;;;63.50;47.50;;;;;3.34;100.00;102322.84;4967152;28;45392;-83
2023/01/29 04:15:36;;;;;;;;;60.00;51.00;;;;;3.27;100.00;102308.34;4966681;28;45621;-84
2023/01/29 04:18:02;;;;;;;;;62.00;50.50;;;;;3.23;100.00;102324.72;4968151;28;48112;-84
2023/01/29 04:20:28;;;;;;;;;61.25;45.00;;;;;3.25;100.00;102317.84;4967319;28;45661;-84
2023/01/29 04:22:53;;;;;;;;;62.25;51.00;;;;;3.26;100.00;102314.41;4969178;28;44777;-83
2023/01/29 04:25:33;;;;;;;;;37.25;33.50;;;;;3.36;100.00;102316.88;4970079;28;45515;-84
2023/01/29 04:28:10;;;;;;;;;49.75;43.75;;;;;3.33;100.00;102326.25;4968955;28;47154;-84
2023/01/29 04:30:59;;;;;;;;;56.50;47.25;;;;;3.46;100.00;102323.69;4985954;28;45290;-84
2023/01/29 04:33:46;;;;;;;;;62.75;47.75;;;;;3.40;100.00;102326.78;4968881;28;45495;-85
2023/01/29 04:36:38;;;;;;;;;60.75;48.75;;;;;3.36;100.00;102323.84;4968298;28;45480;-84
2023/01/29 04:39:07;;;;;;;;;53.00;46.50;;;;;3.38;100.00;102335.38;4987568;28;48471;-83
2023/01/29 04:41:45;;;;;;;;;51.75;44.25;;;;;3.32;100.00;102334.97;4987460;28;45561;-83
2023/01/29 04:44:48;;;;;;;;;53.75;46.75;;;;;3.26;100.00;102327.56;4987512;28;45228;-83
2023/01/29 04:47:30;;;;;;;;;55.75;46.25;;;;;3.32;100.00;102340.22;5004861;28;45495;-83
2023/01/29 04:50:10;;;;;;;;;55.50;45.25;;;;;3.31;100.00;102335.75;4987299;28;47320;-82
2023/01/29 04:52:48;;;;;;;;;49.75;44.00;;;;;3.36;100.00;102337.91;4987713;28;45218;-83
2023/01/29 04:55:46;;;;;;;;;61.25;49.50;;;;;3.41;100.00;102346.09;4988548;28;45613;-83
2023/01/29 04:58:27;;;;;;;;;63.25;47.25;;;;;3.31;100.00;102339.31;5005427;28;45722;-84
2023/01/29 05:00:54;;;;;;;;;58.75;47.50;;;;;3.26;100.00;102345.97;4986451;28;47213;-84
2023/01/29 05:03:24;;;;;;;;;61.75;48.25;;;;;3.27;100.00;102332.00;5009127;28;45391;-84
2023/01/29 05:06:36;;;;;;;;;56.75;48.75;;;;;3.36;100.00;102337.91;4991262;28;45436;-84
2023/01/29 05:09:02;;;;;;;;;62.50;46.25;;;;;3.18;100.00;102337.53;5010220;28;45423;-84
2023/01/29 05:11:31;;;;;;;;;62.25;50.00;;;;;3.25;100.00;102341.50;4989954;28;46973;-83
2023/01/29 05:13:58;;;;;;;;;65.75;47.00;;;;;3.15;100.00;102349.56;4980757;28;45974;-83
2023/01/29 05:16:42;;;;;;;;;64.00;46.25;;;;;3.19;100.00;102328.88;4970419;28;45538;-83
2023/01/29 05:19:12;;;;;;;;;60.50;50.00;;;;;3.26;100.00;102329.28;4988610;28;45439;-83
2023/01/29 05:21:40;;;;;;;;;64.50;48.75;;;;;3.20;100.00;102333.31;4969192;28;47143;-83
2023/01/29 05:24:18;;;;;;;;;62.50;49.25;;;;;3.20;100.00;102329.78;4970221;28;45487;-84
2023/01/29 05:29:30;;;;;;;;;64.50;52.00;;;;;3.09;100.00;102330.72;4988473;28;45436;-85
2023/01/29 05:31:56;;;;;;;;;61.25;51.50;;;;;3.10;100.00;102327.31;4988240;28;46487;-84
2023/01/29 05:34:22;;;;;;;;;66.25;44.75;;;;;3.02;100.00;102318.88;4969071;28;45619;-84
2023/01/29 05:36:48;;;;;;;;;63.00;50.25;;;;;3.02;100.00;102320.59;4969645;28;45453;-84
2023/01/29 05:39:13;;;;;;;;;9.25;6.25;;;;;3.02;100.00;102323.25;4971222;28;45921;-84
2023/01/29 05:41:39;;;;;;;;;58.75;48.25;;;;;3.06;100.00;102330.53;4970863;28;47330;-84
2023/01/29 05:44:04;;;;;;;;;48.75;43.75;;;;;3.11;100.00;102334.38;4970004;28;44702;-84
2023/01/29 05:46:30;;;;;;;;;57.25;47.50;;;;;3.05;100.00;102333.94;4986890;28;45285;-84
2023/01/29 05:48:55;;;;;;;;;59.00;47.00;;;;;3.11;100.00;102334.38;4971160;28;45691;-84
2023/01/29 05:51:21;;;;;;;;;53.25;47.75;;;;;3.08;100.00;102324.56;4970445;28;48096;-84
2023/01/29 05:53:46;;;;;;;;;56.00;43.00;;;;;3.08;100.00;102321.03;4989939;28;45368;-84
2023/01/29 05:56:11;;;;;;;;;62.00;47.75;;;;;3.04;100.00;102338.28;4971249;28;45670;-84
2023/01/29 05:58:37;;;;;;;;;61.00;48.50;;;;;2.96;100.00;102319.34;4970974;28;45214;-84
2023/01/29 06:01:16;;;;;;;;;66.25;50.00;;;;;3.18;100.00;102336.63;4970179;28;47233;-83
2023/01/29 06:03:42;;;;;;;;;59.25;49.50;;;;;3.07;100.00;102332.34;4969525;28;46255;-84
2023/01/29 06:06:07;;;;;;;;;60.75;46.50;;;;;3.06;100.00;102327.91;4968912;28;45432;-84
2023/01/29 06:08:32;;;;;;;;;58.00;44.25;;;;;3.06;100.00;102334.06;4987588;28;45310;-83
2023/01/29 06:10:58;;;;;;;;;55.75;46.75;;;;;3.16;100.00;102338.25;4968687;28;47184;-84
2023/01/29 06:13:23;;;;;;;;;48.00;42.25;;;;;3.17;100.00;102348.88;4969389;28;45420;-83
2023/01/29 06:15:49;;;;;;;;;56.00;46.25;;;;;3.11;100.00;102335.31;4970783;28;45301;-84
2023/01/29 06:18:16;;;;;;;;;53.50;47.75;;;;;3.21;100.00;102347.34;4968918;28;45461;-84
2023/01/29 06:20:41;;;;;;;;;53.50;44.75;;;;;3.11;100.00;102342.25;4968785;28;48079;-84
2023/01/29 06:23:06;;;;;;;;;61.25;49.00;;;;;3.15;100.00;102346.94;4988831;28;45293;-84
2023/01/29 06:25:32;;;;;;;;;55.75;45.50;;;;;3.11;100.00;102339.63;4988981;28;45889;-83
2023/01/29 06:27:57;;;;;;;;;47.50;42.50;;;;;3.09;100.00;102346.50;4970371;28;45345;-85
2023/01/29 06:30:23;;;;;;;;;59.25;47.00;;;;;3.04;100.00;102342.66;4987809;28;46161;-82
2023/01/29 06:32:48;;;;;;;;;52.75;44.50;;;;;3.04;100.00;102351.44;4970231;28;45372;-83
2023/01/29 06:35:13;;;;;;;;;61.50;49.25;;;;;3.02;100.00;102345.16;4986766;28;44779;-83
2023/01/29 06:37:39;;;;;;;;;59.25;49.00;;;;;3.07;100.00;102353.38;4969201;28;45663;-84
2023/01/29 06:40:05;;;;;;;;;53.25;45.00;;;;;3.02;100.00;102360.03;4986452;28;46187;-84
2023/01/29 06:42:31;;;;;;;;;60.75;48.00;;;;;2.97;100.00;102352.72;4973687;28;45531;-83
2023/01/29 06:44:57;;;;;;;;;52.25;44.50;;;;;3.04;100.00;102356.69;4984762;28;45455;-83
2023/01/29 06:47:23;;;;;;;;;58.50;45.00;;;;;2.99;100.00;102351.13;4968193;28;45447;-84
2023/01/29 06:49:49;;;;;;;;;54.00;48.00;;;;;2.94;100.00;102357.75;4969553;28;47700;-84
2023/01/29 06:52:14;;;;;;;;;54.75;46.00;;;;;2.83;100.00;102352.53;4984545;28;45364;-83
2023/01/29 06:54:40;;;;;;;;;58.50;47.25;;;;;2.79;100.00;102348.81;4967031;28;45371;-84
2023/01/29 06:57:05;;;;;;;;;57.25;45.50;;;;;2.79;100.00;102340.94;4984478;28;45436;-84
2023/01/29 06:59:30;;;;;;;;;58.75;47.00;;;;;2.83;100.00;102342.97;4988276;28;45371;-83
2023/01/29 07:01:57;;;;;;;;;53.50;46.25;;;;;2.97;100.00;102355.38;4971182;28;45400;-83
2023/01/29 07:04:23;;;;;;;;;53.00;46.50;;;;;2.82;100.00;102340.22;4988489;28;45475;-83
2023/01/29 07:06:48;;;;;;;;;49.75;43.50;;;;;2.89;100.00;102345.09;4989524;28;45412;-83
2023/01/29 07:09:13;;;;;;;;;49.50;42.50;;;;;2.87;100.00;102350.25;5007047;28;46814;-83
2023/01/29 07:11:39;;;;;;;;;56.50;48.00;;;;;2.84;100.00;102355.28;5008550;28;45533;-84
2023/01/29 07:14:08;;;;;;;;;56.00;47.25;;;;;2.90;100.00;102347.84;4990129;28;45317;-85
2023/01/29 07:16:33;;;;;;;;;57.50;47.00;;;;;2.89;100.00;102352.97;4989649;28;45672;-83
2023/01/29 07:19:00;;;;;;;;;59.50;47.50;;;;;2.92;100.00;102359.38;4988009;28;47147;-83
2023/01/29 07:21:26;;;;;;;;;54.00;47.00;;;;;2.76;100.00;102348.56;4988694;28;45389;-85
2023/01/29 07:23:51;;;;;;;;;59.50;49.25;;;;;2.84;100.00;102351.75;5005196;28;45438;-84
2023/01/29 07:26:17;;;;;;;;;61.50;48.00;;;;;2.91;100.00;102351.38;4988343;28;44827;-84
2023/01/29 07:28:43;;;;;;;;;58.75;46.25;;;;;2.86;100.00;102353.69;4989243;28;47082;-84
2023/01/29 07:31:12;;;;;;;;;53.75;44.00;;;;;2.88;100.00;102345.91;5007375;28;45269;-84
2023/01/29 07:33:37;;;;;;;;;54.25;46.00;;;;;2.81;100.00;102339.31;5007536;28;45245;-84
2023/01/29 07:36:07;;;;;;;;;60.50;47.00;;;;;2.92;100.00;102353.22;4989957;28;45426;-84
2023/01/29 07:38:32;;;;;;;;;51.75;45.50;;;;;2.80;100.00;102340.09;4988980;28;47442;-84
2023/01/29 07:40:58;;;;;;;;;59.75;48.25;;;;;2.85;100.00;102358.81;5008395;28;45379;-84
2023/01/29 07:43:23;;;;;;;;;60.25;48.25;;;;;2.82;100.00;102359.50;4992267;28;45493;-83
2023/01/29 07:45:49;;;;;;;;;53.50;46.50;;;;;2.84;100.00;102360.53;5010243;28;44928;-82
2023/01/29 07:48:15;;;;;;;;;62.50;49.50;;;;;2.87;100.00;102359.84;4992721;28;47934;-83
2023/01/29 07:50:40;;;;;;;;;55.25;48.75;;;;;2.92;100.00;102359.38;5009308;28;45709;-83
2023/01/29 07:53:06;;;;;;;;;63.00;47.75;;;;;2.93;100.00;102358.59;4989906;28;45347;-84
2023/01/29 07:55:32;;;;;;;;;63.25;49.75;;;;;2.99;100.00;102364.28;5005167;28;45588;-83
2023/01/29 07:58:03;;;;;;;;;64.25;51.75;;;;;3.08;100.00;102349.94;5004963;28;45424;-84
2023/01/29 08:00:30;;;;;;;;;58.00;48.75;;;;;3.02;100.00;102355.69;5008599;28;45365;-83
2023/01/29 08:03:04;;;;;;;;;57.00;49.25;;;;;3.06;100.00;102346.31;4988353;28;45285;-83
2023/01/29 08:08:52;;;;;;;;;62.00;51.00;;;;;3.06;100.00;102348.94;5007523;28;45635;-84
2023/01/29 08:11:17;;;;;;;;;60.25;48.50;;;;;3.12;100.00;102346.72;5008441;28;45074;-83
2023/01/29 08:13:43;;;;;;;;;69.75;54.00;;;;;3.16;100.00;102354.94;4988686;28;45317;-83
2023/01/29 08:16:08;;;;;;;;;59.00;52.25;;;;;3.20;100.00;102358.69;5006691;28;45345;-84
2023/01/29 08:18:37;;;;;;;;;63.00;52.75;;;;;3.32;100.00;102358.63;4988735;28;47226;-84
2023/01/29 08:21:03;;;;;;;;;64.75;53.75;;;;;3.23;100.00;102355.34;4988405;28;45844;-82
2023/01/29 08:23:28;;;;;;;;;58.50;49.00;;;;;3.22;100.00;102343.94;4987610;28;44810;-83
2023/01/29 08:25:54;;;;;;;;;55.25;48.00;;;;;3.41;100.00;102356.63;5006590;28;44785;-86
2023/01/29 08:28:20;;;;;;;;;71.50;54.25;;;;;3.46;100.00;102343.81;5006010;28;45395;-84
2023/01/29 08:30:45;;;;;;;;;68.75;52.50;;;;;3.56;100.00;102348.91;4989260;28;45329;-84
2023/01/29 08:33:10;;;;;;;;;70.25;56.00;;;;;3.63;100.00;102347.59;5004602;28;45439;-83
2023/01/29 08:35:36;;;;;;;;;61.75;50.50;;;;;3.75;100.00;102359.84;4988635;28;45254;-84
2023/01/29 08:38:03;;;;;;;;;65.50;51.75;;;;;3.87;100.00;102358.84;4990700;28;46762;-83
2023/01/29 08:40:30;;;;;;;;;63.25;49.50;;;;;3.90;100.00;102356.41;4991854;28;45445;-83
2023/01/29 08:43:04;;;;;;;;;65.25;48.75;;;;;3.97;100.00;102353.41;5009295;28;45431;-83
2023/01/29 08:45:39;;;;;;;;;53.25;47.50;;;;;4.00;100.00;102351.88;5009584;28;45515;-85
2023/01/29 08:48:05;;;;;;;;;59.75;48.50;;;;;3.99;100.00;102370.22;5007648;28;47033;-84
2023/01/29 08:50:31;;;;;;;;;61.00;48.00;;;;;4.00;100.00;102364.16;4992894;28;45819;-84
2023/01/29 08:52:58;;;;;;;;;67.00;51.75;;;;;4.06;100.00;102364.56;4971796;28;44787;-84
2023/01/29 08:55:24;;;;;;;;;59.75;48.75;;;;;4.07;100.00;102383.88;4991232;28;45602;-84
2023/01/29 08:57:49;;;;;;;;;44.25;41.25;;;;;4.03;100.00;102366.97;4989844;28;45327;-85
2023/01/29 09:00:15;;;;;;;;;57.25;47.50;;;;;4.21;100.00;102383.09;4990339;28;45380;-84
2023/01/29 09:02:40;;;;;;;;;51.00;45.00;;;;;4.34;100.00;102391.00;4988495;28;45331;-84
2023/01/29 09:05:06;;;;;;;;;54.00;44.75;;;;;4.50;100.00;102392.88;4971896;28;45187;-84
2023/01/29 09:07:32;;;;;;;;;52.75;46.50;;;;;4.64;100.00;102400.78;4989001;28;45633;-85
2023/01/29 09:09:57;;;;;;;;;54.00;45.00;;;;;4.68;100.00;102384.34;4989261;28;45772;-84
2023/01/29 09:12:23;;;;;;;;;55.75;43.50;;;;;4.88;100.00;102405.00;4990640;28;45286;-84
2023/01/29 09:14:48;;;;;;;;;44.67;41.33;;;;;4.93;100.00;102378.94;5010646;28;45345;-84
2023/01/29 09:17:14;;;;;;;;;42.33;40.67;;;;;5.04;100.00;102376.97;4989941;28;48389;-85
2023/01/29 09:19:39;;;;;;;;;47.00;41.00;;;;;5.17;100.00;102384.81;4990056;28;45094;-84
2023/01/29 09:22:05;;;;;;;;;49.67;41.00;;;;;5.33;100.00;102389.31;5010060;28;45359;-84
2023/01/29 09:24:33;;;;;;;;;43.33;39.33;;;;;5.44;100.00;102379.44;4990931;28;45579;-83
2023/01/29 09:26:59;;;;;;;;;43.33;41.67;;;;;5.38;100.00;102378.25;4989941;28;45564;-84
2023/01/29 09:29:25;;;;;;;;;51.25;43.75;;;;;5.33;100.00;102371.78;4989830;28;45395;-84
2023/01/29 09:31:50;;;;;;;;;46.50;43.25;;;;;5.32;100.00;102369.94;4991671;28;45386;-84
2023/01/29 09:34:16;;;;;;;;;58.50;45.25;;;;;5.34;100.00;102373.59;4991584;28;45607;-83
2023/01/29 09:36:41;;;;;;;;;48.25;43.00;;;;;5.37;100.00;102375.50;4990282;28;47295;-83
2023/01/29 09:39:06;;;;;;;;;59.25;47.50;;;;;5.52;100.00;102384.38;4992373;28;45616;-83
2023/01/29 09:41:56;;;;;;;;;48.00;44.00;;;;;5.72;100.00;102377.66;4992293;28;45322;-84
2023/01/29 09:44:43;;;;;;;;;49.25;43.25;;;;;5.92;100.00;102385.88;5007061;28;45474;-82
2023/01/29 09:47:13;;;;;;;;;56.50;43.50;;;;;6.00;100.00;102380.25;4992664;28;45734;-84
2023/01/29 09:49:46;;;;;;;;;53.25;46.00;;;;;6.09;100.00;102384.25;4992692;28;45415;-84
2023/01/29 09:52:21;;;;;;;;;58.00;45.25;;;;;6.04;100.00;102373.41;5008219;28;45826;-83
2023/01/29 09:55:17;;;;;;;;;58.00;45.50;;;;;6.21;100.00;102372.66;4990341;28;45697;-84
2023/01/29 09:57:58;;;;;;;;;53.75;40.00;;;;;6.31;100.00;102379.38;4989283;28;48842;-84
2023/01/29 10:00:32;;;;;;;;;50.75;43.00;;;;;6.40;100.00;102368.41;5008640;28;45469;-83
2023/01/29 10:03:23;;;;;;;;;50.50;42.00;;;;;6.59;100.00;102373.94;5008719;28;45423;-83
2023/01/29 10:06:19;;;;;;;;;58.25;46.75;;;;;6.71;100.00;102378.13;4988891;28;45369;-83
2023/01/29 10:09:03;;;;;;;;;51.75;43.75;;;;;6.79;100.00;102382.09;5005521;28;45622;-84
2023/01/29 10:11:37;;;;;;;;;46.75;39.75;;;;;6.75;100.00;102381.00;4987144;28;45282;-84
2023/01/29 10:14:15;;;;;;;;;65.00;50.00;;;;;6.92;100.00;102375.75;4987622;28;45635;-84
2023/01/29 10:16:44;;;;;;;;;56.75;46.75;;;;;6.85;100.00;102377.16;4988722;28;45629;-84
2023/01/29 10:19:39;;;;;;;;;55.50;47.00;;;;;7.00;100.00;102369.13;5005956;28;46060;-83
2023/01/29 10:22:35;;;;;;;;;53.33;44.00;;;;;7.01;100.00;102363.03;4983872;28;45543;-85
2023/01/29 10:25:14;;;;;;;;;57.00;45.25;;;;;7.06;100.00;102366.81;5004750;28;45453;-85
2023/01/29 10:27:46;;;;;;;;;49.25;38.75;;;;;7.16;100.00;102370.88;4987576;28;45352;-85
2023/01/29 10:30:39;;;;;;;;;59.00;46.67;;;;;7.27;100.00;102356.50;5005407;28;46040;-85
2023/01/29 10:33:10;;;;;;;;;41.33;39.67;;;;;7.28;100.00;102358.31;4987956;28;46032;-84
2023/01/29 10:36:00;;;;;;;;;54.00;43.67;;;;;7.46;100.00;102349.53;4988537;28;45626;-85
2023/01/29 10:38:51;;;;;;;;;43.00;38.33;;;;;7.55;100.00;102353.59;4988551;28;45408;-84
2023/01/29 10:41:42;;;;;;;;;57.25;44.75;;;;;7.54;100.00;102330.56;4989598;28;47116;-85
2023/01/29 10:44:52;;;;;;;;;45.25;40.25;;;;;7.61;100.00;102334.44;4990002;28;45380;-85
2023/01/29 10:47:27;;;;;;;;;55.50;42.50;;;;;7.59;100.00;102336.09;4972498;28;45349;-84
2023/01/29 10:49:55;;;;;;;;;50.50;43.25;;;;;7.62;100.00;102330.97;4988715;28;45331;-83
2023/01/29 10:52:23;;;;;;;;;49.00;41.25;;;;;7.54;100.00;102335.84;4994279;28;46341;-84
2023/01/29 10:54:58;;;;;;;;;46.67;41.00;;;;;7.67;100.00;102332.09;4969357;28;45350;-85
2023/01/29 10:57:53;;;;;;;;;43.67;37.67;;;;;7.74;100.00;102323.66;4967880;28;45306;-84
2023/01/29 11:00:26;;;;;;;;;40.33;36.33;;;;;7.68;100.00;102317.13;4984818;28;45420;-83
2023/01/29 11:02:51;;;;;;;;;46.67;41.00;;;;;7.55;100.00;102324.47;4986583;28;46443;-84
2023/01/29 11:05:39;;;;;;;;;46.33;39.00;;;;;7.61;100.00;102329.13;4966957;28;45373;-84
2023/01/29 11:08:15;;;;;;;;;42.67;39.00;;;;;7.59;100.00;102313.19;4969664;28;45416;-83
2023/01/29 11:11:10;;;;;;;;;39.33;36.67;;;;;7.74;100.00;102315.72;4986887;28;45484;-85
2023/01/29 11:13:54;;;;;;;;;36.67;29.33;;;;;7.92;100.00;102317.47;4970026;28;47004;-84
2023/01/29 11:16:19;;;;;;;;;51.00;43.33;;;;;7.91;100.00;102310.34;4968886;28;45532;-84
2023/01/29 11:18:51;;;;;;;;;49.33;38.67;;;;;8.01;100.00;102317.91;4986444;28;45479;-83
2023/01/29 11:21:16;;;;;;;;;51.00;42.00;;;;;8.02;100.00;102317.09;4969429;28;45432;-85
2023/01/29 11:23:42;;;;;;;;;43.33;39.67;;;;;8.10;100.00;102313.09;4968580;28;47236;-85
2023/01/29 11:26:11;;;;;;;;;45.67;38.67;;;;;8.19;100.00;102296.72;4971493;28;45357;-85
2023/01/29 11:32:36;;;;;;;;;43.00;36.00;;;;;8.29;100.00;102298.09;4986315;28;45368;-86
2023/01/29 11:35:02;;;;;;;;;40.00;36.67;;;;;8.06;100.00;102303.16;4969832;28;47289;-84
2023/01/29 11:37:35;;;;;;;;;28.67;22.00;;;;;8.19;100.00;102287.03;4968527;28;45476;-84
2023/01/29 11:40:21;;;;;;;;;52.00;41.00;;;;;8.13;100.00;102280.53;4969452;28;45410;-84
2023/01/29 11:42:47;;;;;;;;;38.67;38.00;;;;;8.24;100.00;102279.31;4968385;28;45394;-85
2023/01/29 11:45:22;;;;;;;;;50.33;41.67;;;;;8.44;100.00;102285.56;4968746;28;47051;-85
2023/01/29 11:47:55;;;;;;;;;45.33;38.00;;;;;8.49;100.00;102277.88;4968397;28;45581;-85
2023/01/29 11:50:25;;;;;;;;;35.33;34.33;;;;;8.41;100.00;102273.09;4968307;28;44835;-85
2023/01/29 11:52:50;;;;;;;;;45.33;40.33;;;;;8.45;100.00;102284.75;4968791;28;45920;-85
2023/01/29 11:55:26;;;;;;;;;41.00;34.33;;;;;8.60;100.00;102274.88;4968940;28;47002;-86
2023/01/29 11:58:03;;;;;;;;;46.67;37.00;;;;;8.49;100.00;102280.50;4968698;28;45795;-84
2023/01/29 12:00:33;;;;;;;;;45.00;38.33;;;;;8.32;100.00;102272.63;4985474;28;45671;-84
2023/01/29 12:03:14;;;;;;;;;43.67;38.00;;;;;8.29;100.00;102268.94;4968161;28;45193;-84
2023/01/29 12:05:53;;;;;;;;;39.00;36.00;;;;;8.23;100.00;102268.63;4986627;28;45464;-84
2023/01/29 12:08:21;;;;;;;;;33.67;30.67;;;;;8.10;100.00;102260.09;4985364;28;45317;-83